sensor_id;sensor_type;location;lat;lon;timestamp;temperature;humidity
16666;DHT22;8446;50.998;6.250;2023-09-12T00:00:09;19.10;99.90
16666;DHT22;8446;50.998;6.250;2023-09-12T00:02:37;19.10;99.90
16666;DHT22;8446;50.998;6.250;2023-09-12T00:05:04;19.10;99.90
16666;DHT22;8446;50.998;6.250;2023-09-12T00:07:32;19.10;99.90
16666;DHT22;8446;50.998;6.250;2023-09-12T00:09:58;19.20;99.90
16666;DHT22;8446;50.998;6.250;2023-09-12T00:12:27;19.10;99.90
16666;DHT22;8446;50.998;6.250;2023-09-12T00:14:54;19.20;99.90
16666;DHT22;8446;50.998;6.250;2023-09-12T00:17:21;19.30;99.90
16666;DHT22;8446;50.998;6.250;2023-09-12T00:19:48;19.30;99.90
16666;DHT22;8446;50.998;6.250;2023-09-12T00:22:15;19.40;99.90
16666;DHT22;8446;50.998;6.250;2023-09-12T00:24:41;19.40;99.90
16666;DHT22;8446;50.998;6.250;2023-09-12T00:27:08;19.00;99.90
16666;DHT22;8446;50.998;6.250;2023-09-12T00:29:36;18.70;99.90
16666;DHT22;8446;50.998;6.250;2023-09-12T00:32:04;18.70;99.90
16666;DHT22;8446;50.998;6.250;2023-09-12T00:34:31;18.70;99.90
16666;DHT22;8446;50.998;6.250;2023-09-12T00:36:58;18.60;99.90
16666;DHT22;8446;50.998;6.250;2023-09-12T00:39:24;18.50;99.90
16666;DHT22;8446;50.998;6.250;2023-09-12T00:41:51;18.70;99.90
16666;DHT22;8446;50.998;6.250;2023-09-12T00:44:18;18.30;99.90
16666;DHT22;8446;50.998;6.250;2023-09-12T00:46:47;18.10;99.90
16666;DHT22;8446;50.998;6.250;2023-09-12T00:49:16;18.10;99.90
16666;DHT22;8446;50.998;6.250;2023-09-12T00:51:45;18.10;99.90
16666;DHT22;8446;50.998;6.250;2023-09-12T00:54:12;18.00;99.90
16666;DHT22;8446;50.998;6.250;2023-09-12T00:56:39;18.20;99.90
16666;DHT22;8446;50.998;6.250;2023-09-12T00:59:06;18.10;99.90
16666;DHT22;8446;50.998;6.250;2023-09-12T01:01:34;17.90;99.90
16666;DHT22;8446;50.998;6.250;2023-09-12T01:04:03;17.90;99.90
16666;DHT22;8446;50.998;6.250;2023-09-12T01:06:32;18.10;99.90
16666;DHT22;8446;50.998;6.250;2023-09-12T01:09:00;18.10;99.90
16666;DHT22;8446;50.998;6.250;2023-09-12T01:11:28;18.00;99.90
16666;DHT22;8446;50.998;6.250;2023-09-12T01:13:55;18.10;99.90
16666;DHT22;8446;50.998;6.250;2023-09-12T01:16:22;18.10;99.90
16666;DHT22;8446;50.998;6.250;2023-09-12T01:18:49;18.20;99.90
16666;DHT22;8446;50.998;6.250;2023-09-12T01:21:39;18.10;99.90
16666;DHT22;8446;50.998;6.250;2023-09-12T01:27:19;17.90;99.90
16666;DHT22;8446;50.998;6.250;2023-09-12T01:29:49;17.80;99.90
16666;DHT22;8446;50.998;6.250;2023-09-12T01:32:18;17.70;99.90
16666;DHT22;8446;50.998;6.250;2023-09-12T01:34:46;17.70;99.90
16666;DHT22;8446;50.998;6.250;2023-09-12T01:37:13;17.80;99.90
16666;DHT22;8446;50.998;6.250;2023-09-12T01:39:40;17.70;99.90
16666;DHT22;8446;50.998;6.250;2023-09-12T01:42:09;17.80;99.90
16666;DHT22;8446;50.998;6.250;2023-09-12T01:44:39;17.90;99.90
16666;DHT22;8446;50.998;6.250;2023-09-12T01:47:06;18.00;99.90
16666;DHT22;8446;50.998;6.250;2023-09-12T01:49:35;18.20;99.90
16666;DHT22;8446;50.998;6.250;2023-09-12T01:52:04;18.40;99.90
16666;DHT22;8446;50.998;6.250;2023-09-12T01:54:32;18.40;99.90
16666;DHT22;8446;50.998;6.250;2023-09-12T01:57:00;18.50;99.90
16666;DHT22;8446;50.998;6.250;2023-09-12T01:59:28;18.40;99.90
16666;DHT22;8446;50.998;6.250;2023-09-12T02:01:56;18.30;99.90
16666;DHT22;8446;50.998;6.250;2023-09-12T02:04:23;18.20;99.90
16666;DHT22;8446;50.998;6.250;2023-09-12T02:06:50;18.30;99.90
16666;DHT22;8446;50.998;6.250;2023-09-12T02:09:17;18.10;99.90
16666;DHT22;8446;50.998;6.250;2023-09-12T02:11:44;18.00;99.90
16666;DHT22;8446;50.998;6.250;2023-09-12T02:14:11;17.90;99.90
16666;DHT22;8446;50.998;6.250;2023-09-12T02:16:38;18.00;99.90
16666;DHT22;8446;50.998;6.250;2023-09-12T02:19:06;18.10;99.90
16666;DHT22;8446;50.998;6.250;2023-09-12T02:21:33;18.10;99.90
16666;DHT22;8446;50.998;6.250;2023-09-12T02:24:00;18.20;99.90
16666;DHT22;8446;50.998;6.250;2023-09-12T02:26:27;18.10;99.90
16666;DHT22;8446;50.998;6.250;2023-09-12T02:28:54;18.00;99.90
16666;DHT22;8446;50.998;6.250;2023-09-12T02:31:21;18.10;99.90
16666;DHT22;8446;50.998;6.250;2023-09-12T02:33:48;18.10;99.90
16666;DHT22;8446;50.998;6.250;2023-09-12T02:36:16;18.10;99.90
16666;DHT22;8446;50.998;6.250;2023-09-12T02:38:43;18.10;99.90
16666;DHT22;8446;50.998;6.250;2023-09-12T02:41:10;18.10;99.90
16666;DHT22;8446;50.998;6.250;2023-09-12T02:43:37;18.10;99.90
16666;DHT22;8446;50.998;6.250;2023-09-12T02:46:04;18.20;99.90
16666;DHT22;8446;50.998;6.250;2023-09-12T02:48:31;18.10;99.90
16666;DHT22;8446;50.998;6.250;2023-09-12T02:50:57;18.00;99.90
16666;DHT22;8446;50.998;6.250;2023-09-12T02:53:26;17.90;99.90
16666;DHT22;8446;50.998;6.250;2023-09-12T02:55:53;17.80;99.90
16666;DHT22;8446;50.998;6.250;2023-09-12T02:58:20;17.70;99.90
16666;DHT22;8446;50.998;6.250;2023-09-12T03:00:47;17.80;99.90
16666;DHT22;8446;50.998;6.250;2023-09-12T03:03:15;17.70;99.90
16666;DHT22;8446;50.998;6.250;2023-09-12T03:05:42;17.70;99.90
16666;DHT22;8446;50.998;6.250;2023-09-12T03:08:09;17.60;99.90
16666;DHT22;8446;50.998;6.250;2023-09-12T03:10:37;17.50;99.90
16666;DHT22;8446;50.998;6.250;2023-09-12T03:13:04;17.30;99.90
16666;DHT22;8446;50.998;6.250;2023-09-12T03:15:36;17.30;99.90
16666;DHT22;8446;50.998;6.250;2023-09-12T03:18:04;17.30;99.90
16666;DHT22;8446;50.998;6.250;2023-09-12T03:20:31;17.20;99.90
16666;DHT22;8446;50.998;6.250;2023-09-12T03:22:58;17.20;99.90
16666;DHT22;8446;50.998;6.250;2023-09-12T03:25:25;17.50;99.90
16666;DHT22;8446;50.998;6.250;2023-09-12T03:27:53;17.50;99.90
16666;DHT22;8446;50.998;6.250;2023-09-12T03:30:20;17.50;99.90
16666;DHT22;8446;50.998;6.250;2023-09-12T03:32:48;17.40;99.90
16666;DHT22;8446;50.998;6.250;2023-09-12T03:35:15;17.30;99.90
16666;DHT22;8446;50.998;6.250;2023-09-12T03:37:44;17.40;99.90
16666;DHT22;8446;50.998;6.250;2023-09-12T03:40:11;17.60;99.90
16666;DHT22;8446;50.998;6.250;2023-09-12T03:42:38;17.60;99.90
16666;DHT22;8446;50.998;6.250;2023-09-12T03:45:08;17.50;99.90
16666;DHT22;8446;50.998;6.250;2023-09-12T03:47:35;17.60;99.90
16666;DHT22;8446;50.998;6.250;2023-09-12T03:50:02;17.60;99.90
16666;DHT22;8446;50.998;6.250;2023-09-12T03:52:29;17.70;99.90
16666;DHT22;8446;50.998;6.250;2023-09-12T03:54:56;17.60;99.90
16666;DHT22;8446;50.998;6.250;2023-09-12T03:57:23;17.60;99.90
16666;DHT22;8446;50.998;6.250;2023-09-12T03:59:51;17.60;99.90
16666;DHT22;8446;50.998;6.250;2023-09-12T04:02:19;17.60;99.90
16666;DHT22;8446;50.998;6.250;2023-09-12T04:04:46;17.70;99.90
16666;DHT22;8446;50.998;6.250;2023-09-12T04:07:13;17.70;99.90
16666;DHT22;8446;50.998;6.250;2023-09-12T04:09:40;17.70;99.90
16666;DHT22;8446;50.998;6.250;2023-09-12T04:12:07;17.80;99.90
16666;DHT22;8446;50.998;6.250;2023-09-12T04:14:34;17.60;99.90
16666;DHT22;8446;50.998;6.250;2023-09-12T04:17:01;17.60;99.90
16666;DHT22;8446;50.998;6.250;2023-09-12T04:19:30;17.60;99.90
16666;DHT22;8446;50.998;6.250;2023-09-12T04:21:58;17.60;99.90
16666;DHT22;8446;50.998;6.250;2023-09-12T04:24:25;17.70;99.90
16666;DHT22;8446;50.998;6.250;2023-09-12T04:26:53;17.70;99.90
16666;DHT22;8446;50.998;6.250;2023-09-12T04:29:20;17.60;99.90
16666;DHT22;8446;50.998;6.250;2023-09-12T04:31:47;17.60;99.90
16666;DHT22;8446;50.998;6.250;2023-09-12T04:34:14;17.50;99.90
16666;DHT22;8446;50.998;6.250;2023-09-12T04:36:42;17.60;99.90
16666;DHT22;8446;50.998;6.250;2023-09-12T04:39:09;17.60;99.90
16666;DHT22;8446;50.998;6.250;2023-09-12T04:41:36;17.60;99.90
16666;DHT22;8446;50.998;6.250;2023-09-12T04:44:04;17.70;99.90
16666;DHT22;8446;50.998;6.250;2023-09-12T04:46:31;17.70;99.90
16666;DHT22;8446;50.998;6.250;2023-09-12T04:48:58;17.80;99.90
16666;DHT22;8446;50.998;6.250;2023-09-12T04:51:25;17.80;99.90
16666;DHT22;8446;50.998;6.250;2023-09-12T04:53:54;17.80;99.90
16666;DHT22;8446;50.998;6.250;2023-09-12T04:56:21;17.90;99.90
16666;DHT22;8446;50.998;6.250;2023-09-12T04:58:49;17.90;99.90
16666;DHT22;8446;50.998;6.250;2023-09-12T05:01:17;17.90;99.90
16666;DHT22;8446;50.998;6.250;2023-09-12T05:03:43;17.90;99.90
16666;DHT22;8446;50.998;6.250;2023-09-12T05:06:11;17.90;99.90
16666;DHT22;8446;50.998;6.250;2023-09-12T05:08:38;17.90;99.90
16666;DHT22;8446;50.998;6.250;2023-09-12T05:11:06;17.90;99.90
16666;DHT22;8446;50.998;6.250;2023-09-12T05:13:32;18.00;99.90
16666;DHT22;8446;50.998;6.250;2023-09-12T05:15:59;18.10;99.90
16666;DHT22;8446;50.998;6.250;2023-09-12T05:18:26;18.20;99.90
16666;DHT22;8446;50.998;6.250;2023-09-12T05:20:53;18.20;99.90
16666;DHT22;8446;50.998;6.250;2023-09-12T05:23:20;18.20;99.90
16666;DHT22;8446;50.998;6.250;2023-09-12T05:25:47;18.20;99.90
16666;DHT22;8446;50.998;6.250;2023-09-12T05:28:15;18.20;99.90
16666;DHT22;8446;50.998;6.250;2023-09-12T05:30:41;18.10;99.90
16666;DHT22;8446;50.998;6.250;2023-09-12T05:33:08;18.10;99.90
16666;DHT22;8446;50.998;6.250;2023-09-12T05:35:35;18.00;99.90
16666;DHT22;8446;50.998;6.250;2023-09-12T05:38:03;18.00;99.90
16666;DHT22;8446;50.998;6.250;2023-09-12T05:40:30;18.00;99.90
16666;DHT22;8446;50.998;6.250;2023-09-12T05:42:56;18.10;99.90
16666;DHT22;8446;50.998;6.250;2023-09-12T05:45:25;18.00;99.90
16666;DHT22;8446;50.998;6.250;2023-09-12T05:47:51;18.00;99.90
16666;DHT22;8446;50.998;6.250;2023-09-12T05:50:18;18.00;99.90
16666;DHT22;8446;50.998;6.250;2023-09-12T05:52:45;18.00;99.90
16666;DHT22;8446;50.998;6.250;2023-09-12T05:55:12;18.00;99.90
16666;DHT22;8446;50.998;6.250;2023-09-12T05:57:39;18.10;99.90
16666;DHT22;8446;50.998;6.250;2023-09-12T06:00:06;18.10;99.90
16666;DHT22;8446;50.998;6.250;2023-09-12T06:02:37;18.10;99.90
16666;DHT22;8446;50.998;6.250;2023-09-12T06:05:04;18.20;99.90
16666;DHT22;8446;50.998;6.250;2023-09-12T06:07:32;18.20;99.90
16666;DHT22;8446;50.998;6.250;2023-09-12T06:09:58;18.10;99.90
16666;DHT22;8446;50.998;6.250;2023-09-12T06:12:25;18.20;99.90
16666;DHT22;8446;50.998;6.250;2023-09-12T06:14:52;18.10;99.90
16666;DHT22;8446;50.998;6.250;2023-09-12T06:17:21;18.30;99.90
16666;DHT22;8446;50.998;6.250;2023-09-12T06:19:49;18.30;99.90
16666;DHT22;8446;50.998;6.250;2023-09-12T06:22:16;18.20;99.90
16666;DHT22;8446;50.998;6.250;2023-09-12T06:24:43;18.00;99.90
16666;DHT22;8446;50.998;6.250;2023-09-12T06:27:10;18.30;99.90
16666;DHT22;8446;50.998;6.250;2023-09-12T06:29:38;18.30;99.90
16666;DHT22;8446;50.998;6.250;2023-09-12T06:32:05;18.30;99.90
16666;DHT22;8446;50.998;6.250;2023-09-12T06:34:32;18.30;99.90
16666;DHT22;8446;50.998;6.250;2023-09-12T06:37:00;18.50;99.90
16666;DHT22;8446;50.998;6.250;2023-09-12T06:39:27;18.40;99.90
16666;DHT22;8446;50.998;6.250;2023-09-12T06:41:53;18.30;99.90
16666;DHT22;8446;50.998;6.250;2023-09-12T06:44:20;18.20;99.90
16666;DHT22;8446;50.998;6.250;2023-09-12T06:46:47;18.20;99.90
16666;DHT22;8446;50.998;6.250;2023-09-12T06:49:14;18.20;99.90
16666;DHT22;8446;50.998;6.250;2023-09-12T06:51:41;18.30;99.90
16666;DHT22;8446;50.998;6.250;2023-09-12T06:54:09;18.40;99.90
16666;DHT22;8446;50.998;6.250;2023-09-12T06:56:35;18.40;99.90
16666;DHT22;8446;50.998;6.250;2023-09-12T06:59:03;18.40;99.90
16666;DHT22;8446;50.998;6.250;2023-09-12T07:01:30;18.50;99.90
16666;DHT22;8446;50.998;6.250;2023-09-12T07:03:56;18.60;99.90
16666;DHT22;8446;50.998;6.250;2023-09-12T07:06:23;18.50;99.90
16666;DHT22;8446;50.998;6.250;2023-09-12T07:08:50;18.60;99.90
16666;DHT22;8446;50.998;6.250;2023-09-12T07:11:19;18.50;99.90
16666;DHT22;8446;50.998;6.250;2023-09-12T07:13:45;18.60;99.90
16666;DHT22;8446;50.998;6.250;2023-09-12T07:16:12;18.60;99.90
16666;DHT22;8446;50.998;6.250;2023-09-12T07:18:39;18.60;99.90
16666;DHT22;8446;50.998;6.250;2023-09-12T07:21:07;18.80;99.90
16666;DHT22;8446;50.998;6.250;2023-09-12T07:23:36;18.70;99.90
16666;DHT22;8446;50.998;6.250;2023-09-12T07:26:03;18.80;99.90
16666;DHT22;8446;50.998;6.250;2023-09-12T07:28:31;18.90;99.90
16666;DHT22;8446;50.998;6.250;2023-09-12T07:30:58;19.10;99.90
16666;DHT22;8446;50.998;6.250;2023-09-12T07:33:25;19.00;99.90
16666;DHT22;8446;50.998;6.250;2023-09-12T07:35:52;19.00;99.90
16666;DHT22;8446;50.998;6.250;2023-09-12T07:38:20;19.00;99.90
16666;DHT22;8446;50.998;6.250;2023-09-12T07:40:47;19.20;99.90
16666;DHT22;8446;50.998;6.250;2023-09-12T07:43:14;19.40;99.90
16666;DHT22;8446;50.998;6.250;2023-09-12T07:45:42;19.20;99.90
16666;DHT22;8446;50.998;6.250;2023-09-12T07:48:10;19.20;99.90
16666;DHT22;8446;50.998;6.250;2023-09-12T07:50:37;19.10;99.90
16666;DHT22;8446;50.998;6.250;2023-09-12T07:53:04;19.10;99.90
16666;DHT22;8446;50.998;6.250;2023-09-12T07:55:31;19.20;99.90
16666;DHT22;8446;50.998;6.250;2023-09-12T07:58:01;19.30;99.90
16666;DHT22;8446;50.998;6.250;2023-09-12T08:00:28;19.40;99.90
16666;DHT22;8446;50.998;6.250;2023-09-12T08:02:56;19.40;99.90
16666;DHT22;8446;50.998;6.250;2023-09-12T08:05:23;19.50;99.90
16666;DHT22;8446;50.998;6.250;2023-09-12T08:07:50;20.00;99.90
16666;DHT22;8446;50.998;6.250;2023-09-12T08:10:16;19.50;99.90
16666;DHT22;8446;50.998;6.250;2023-09-12T08:12:43;19.40;99.90
16666;DHT22;8446;50.998;6.250;2023-09-12T08:15:10;19.40;99.90
16666;DHT22;8446;50.998;6.250;2023-09-12T08:17:37;19.60;99.90
16666;DHT22;8446;50.998;6.250;2023-09-12T08:20:08;19.60;99.90
16666;DHT22;8446;50.998;6.250;2023-09-12T08:22:35;19.50;99.90
16666;DHT22;8446;50.998;6.250;2023-09-12T08:25:03;19.70;99.90
16666;DHT22;8446;50.998;6.250;2023-09-12T08:27:30;19.90;99.90
16666;DHT22;8446;50.998;6.250;2023-09-12T08:29:56;19.70;99.90
16666;DHT22;8446;50.998;6.250;2023-09-12T08:32:23;20.20;99.90
16666;DHT22;8446;50.998;6.250;2023-09-12T08:34:50;20.30;99.90
16666;DHT22;8446;50.998;6.250;2023-09-12T08:37:18;20.20;99.90
16666;DHT22;8446;50.998;6.250;2023-09-12T08:39:45;20.40;99.90
16666;DHT22;8446;50.998;6.250;2023-09-12T08:42:13;20.40;99.90
16666;DHT22;8446;50.998;6.250;2023-09-12T08:44:40;20.30;99.90
16666;DHT22;8446;50.998;6.250;2023-09-12T08:47:08;20.20;99.90
16666;DHT22;8446;50.998;6.250;2023-09-12T08:49:36;20.20;99.90
16666;DHT22;8446;50.998;6.250;2023-09-12T08:52:04;20.50;99.90
16666;DHT22;8446;50.998;6.250;2023-09-12T08:54:32;20.40;99.90
16666;DHT22;8446;50.998;6.250;2023-09-12T08:57:01;20.50;99.90
16666;DHT22;8446;50.998;6.250;2023-09-12T08:59:29;20.40;99.90
16666;DHT22;8446;50.998;6.250;2023-09-12T09:01:57;20.80;99.90
16666;DHT22;8446;50.998;6.250;2023-09-12T09:04:24;21.20;99.90
16666;DHT22;8446;50.998;6.250;2023-09-12T09:06:54;21.20;99.90
16666;DHT22;8446;50.998;6.250;2023-09-12T09:09:22;21.10;99.90
16666;DHT22;8446;50.998;6.250;2023-09-12T09:11:50;20.70;99.90
16666;DHT22;8446;50.998;6.250;2023-09-12T09:14:17;20.70;99.90
16666;DHT22;8446;50.998;6.250;2023-09-12T09:16:44;21.00;99.90
16666;DHT22;8446;50.998;6.250;2023-09-12T09:19:11;21.50;99.90
16666;DHT22;8446;50.998;6.250;2023-09-12T09:21:38;22.00;99.90
16666;DHT22;8446;50.998;6.250;2023-09-12T09:24:07;22.20;99.90
16666;DHT22;8446;50.998;6.250;2023-09-12T09:26:45;22.30;99.90
16666;DHT22;8446;50.998;6.250;2023-09-12T09:29:16;21.90;99.90
16666;DHT22;8446;50.998;6.250;2023-09-12T09:31:44;21.80;99.90
16666;DHT22;8446;50.998;6.250;2023-09-12T09:34:11;22.00;99.90
16666;DHT22;8446;50.998;6.250;2023-09-12T09:36:41;22.40;99.90
16666;DHT22;8446;50.998;6.250;2023-09-12T09:39:09;22.60;99.90
16666;DHT22;8446;50.998;6.250;2023-09-12T09:41:36;22.20;99.90
16666;DHT22;8446;50.998;6.250;2023-09-12T09:44:04;22.00;99.90
16666;DHT22;8446;50.998;6.250;2023-09-12T09:46:33;21.90;99.90
16666;DHT22;8446;50.998;6.250;2023-09-12T09:48:59;22.30;99.90
16666;DHT22;8446;50.998;6.250;2023-09-12T09:51:27;23.40;99.90
16666;DHT22;8446;50.998;6.250;2023-09-12T09:53:55;23.00;99.90
16666;DHT22;8446;50.998;6.250;2023-09-12T09:56:24;22.50;99.90
16666;DHT22;8446;50.998;6.250;2023-09-12T09:58:53;22.50;99.90
16666;DHT22;8446;50.998;6.250;2023-09-12T10:01:21;22.50;99.90
16666;DHT22;8446;50.998;6.250;2023-09-12T10:03:50;22.80;99.90
16666;DHT22;8446;50.998;6.250;2023-09-12T10:06:18;22.60;99.90
16666;DHT22;8446;50.998;6.250;2023-09-12T10:08:51;22.90;99.90
16666;DHT22;8446;50.998;6.250;2023-09-12T10:11:20;23.10;99.90
16666;DHT22;8446;50.998;6.250;2023-09-12T10:13:52;22.90;99.90
16666;DHT22;8446;50.998;6.250;2023-09-12T10:16:21;22.90;99.90
16666;DHT22;8446;50.998;6.250;2023-09-12T10:18:58;22.90;99.90
16666;DHT22;8446;50.998;6.250;2023-09-12T10:21:29;23.20;99.90
16666;DHT22;8446;50.998;6.250;2023-09-12T10:23:58;22.90;99.90
16666;DHT22;8446;50.998;6.250;2023-09-12T10:26:25;22.70;99.90
16666;DHT22;8446;50.998;6.250;2023-09-12T10:28:52;22.70;99.90
16666;DHT22;8446;50.998;6.250;2023-09-12T10:31:21;22.80;99.90
16666;DHT22;8446;50.998;6.250;2023-09-12T10:33:51;22.70;99.90
16666;DHT22;8446;50.998;6.250;2023-09-12T10:36:19;22.50;99.90
16666;DHT22;8446;50.998;6.250;2023-09-12T10:38:48;22.90;99.90
16666;DHT22;8446;50.998;6.250;2023-09-12T10:41:16;22.80;99.90
16666;DHT22;8446;50.998;6.250;2023-09-12T10:43:44;22.90;99.90
16666;DHT22;8446;50.998;6.250;2023-09-12T10:46:15;23.50;99.90
16666;DHT22;8446;50.998;6.250;2023-09-12T10:48:43;23.80;99.90
16666;DHT22;8446;50.998;6.250;2023-09-12T10:51:11;23.90;99.90
16666;DHT22;8446;50.998;6.250;2023-09-12T10:53:45;24.10;99.90
16666;DHT22;8446;50.998;6.250;2023-09-12T10:56:16;23.90;99.90
16666;DHT22;8446;50.998;6.250;2023-09-12T10:59:09;23.90;99.90
16666;DHT22;8446;50.998;6.250;2023-09-12T11:01:37;24.30;99.90
16666;DHT22;8446;50.998;6.250;2023-09-12T11:04:32;24.40;99.90
16666;DHT22;8446;50.998;6.250;2023-09-12T11:07:32;24.60;99.90
16666;DHT22;8446;50.998;6.250;2023-09-12T11:10:19;24.50;99.90
16666;DHT22;8446;50.998;6.250;2023-09-12T11:12:47;24.50;99.90
16666;DHT22;8446;50.998;6.250;2023-09-12T11:15:15;25.00;99.90
16666;DHT22;8446;50.998;6.250;2023-09-12T11:17:43;24.70;99.90
16666;DHT22;8446;50.998;6.250;2023-09-12T11:20:10;24.30;99.90
16666;DHT22;8446;50.998;6.250;2023-09-12T11:22:40;23.80;99.90
16666;DHT22;8446;50.998;6.250;2023-09-12T11:25:17;24.30;99.90
16666;DHT22;8446;50.998;6.250;2023-09-12T11:27:46;24.70;99.90
16666;DHT22;8446;50.998;6.250;2023-09-12T11:30:28;25.30;99.90
16666;DHT22;8446;50.998;6.250;2023-09-12T11:32:56;25.60;99.90
16666;DHT22;8446;50.998;6.250;2023-09-12T11:35:25;25.50;99.90
16666;DHT22;8446;50.998;6.250;2023-09-12T11:37:54;25.10;99.90
16666;DHT22;8446;50.998;6.250;2023-09-12T11:40:24;24.90;99.90
16666;DHT22;8446;50.998;6.250;2023-09-12T11:42:51;24.60;99.90
16666;DHT22;8446;50.998;6.250;2023-09-12T11:45:19;24.70;99.90
16666;DHT22;8446;50.998;6.250;2023-09-12T11:47:47;24.80;99.90
16666;DHT22;8446;50.998;6.250;2023-09-12T11:50:27;25.20;99.90
16666;DHT22;8446;50.998;6.250;2023-09-12T11:53:03;24.90;99.90
16666;DHT22;8446;50.998;6.250;2023-09-12T11:55:35;25.10;99.90
16666;DHT22;8446;50.998;6.250;2023-09-12T11:58:03;25.00;99.90
16666;DHT22;8446;50.998;6.250;2023-09-12T12:00:30;25.20;99.90
16666;DHT22;8446;50.998;6.250;2023-09-12T12:02:57;25.20;99.90
16666;DHT22;8446;50.998;6.250;2023-09-12T12:05:25;25.10;99.90
16666;DHT22;8446;50.998;6.250;2023-09-12T12:07:51;25.20;99.90
16666;DHT22;8446;50.998;6.250;2023-09-12T12:10:20;25.60;99.90
16666;DHT22;8446;50.998;6.250;2023-09-12T12:12:47;25.60;99.90
16666;DHT22;8446;50.998;6.250;2023-09-12T12:15:14;25.70;99.90
16666;DHT22;8446;50.998;6.250;2023-09-12T12:17:41;25.90;99.90
16666;DHT22;8446;50.998;6.250;2023-09-12T12:20:09;25.90;99.90
16666;DHT22;8446;50.998;6.250;2023-09-12T12:22:37;25.30;99.90
16666;DHT22;8446;50.998;6.250;2023-09-12T12:25:07;25.40;99.90
16666;DHT22;8446;50.998;6.250;2023-09-12T12:27:37;25.00;99.90
16666;DHT22;8446;50.998;6.250;2023-09-12T12:30:06;25.70;99.90
16666;DHT22;8446;50.998;6.250;2023-09-12T12:32:34;25.70;99.90
16666;DHT22;8446;50.998;6.250;2023-09-12T12:35:02;26.00;99.90
16666;DHT22;8446;50.998;6.250;2023-09-12T12:37:30;26.00;99.90
16666;DHT22;8446;50.998;6.250;2023-09-12T12:39:57;26.20;99.90
16666;DHT22;8446;50.998;6.250;2023-09-12T12:42:25;26.40;99.90
16666;DHT22;8446;50.998;6.250;2023-09-12T12:44:56;25.90;99.90
16666;DHT22;8446;50.998;6.250;2023-09-12T12:47:23;25.50;99.90
16666;DHT22;8446;50.998;6.250;2023-09-12T12:49:53;25.70;99.90
16666;DHT22;8446;50.998;6.250;2023-09-12T12:52:23;26.20;99.90
16666;DHT22;8446;50.998;6.250;2023-09-12T12:54:50;25.60;99.90
16666;DHT22;8446;50.998;6.250;2023-09-12T12:57:20;25.20;99.90
16666;DHT22;8446;50.998;6.250;2023-09-12T12:59:47;25.50;99.90
16666;DHT22;8446;50.998;6.250;2023-09-12T13:02:15;26.10;99.90
16666;DHT22;8446;50.998;6.250;2023-09-12T13:04:44;26.20;99.90
16666;DHT22;8446;50.998;6.250;2023-09-12T13:07:11;26.10;99.90
16666;DHT22;8446;50.998;6.250;2023-09-12T13:09:38;26.00;99.90
16666;DHT22;8446;50.998;6.250;2023-09-12T13:12:06;26.50;99.90
16666;DHT22;8446;50.998;6.250;2023-09-12T13:14:34;27.10;99.90
16666;DHT22;8446;50.998;6.250;2023-09-12T13:17:01;27.10;99.90
16666;DHT22;8446;50.998;6.250;2023-09-12T13:19:29;27.40;99.90
16666;DHT22;8446;50.998;6.250;2023-09-12T13:21:57;26.50;99.90
16666;DHT22;8446;50.998;6.250;2023-09-12T13:24:23;26.00;99.90
16666;DHT22;8446;50.998;6.250;2023-09-12T13:26:51;25.90;99.90
16666;DHT22;8446;50.998;6.250;2023-09-12T13:29:18;25.90;99.90
16666;DHT22;8446;50.998;6.250;2023-09-12T13:31:45;26.00;99.90
16666;DHT22;8446;50.998;6.250;2023-09-12T13:34:14;25.50;99.90
16666;DHT22;8446;50.998;6.250;2023-09-12T13:36:43;25.20;99.90
16666;DHT22;8446;50.998;6.250;2023-09-12T13:39:10;24.70;99.90
16666;DHT22;8446;50.998;6.250;2023-09-12T13:41:38;24.80;99.90
16666;DHT22;8446;50.998;6.250;2023-09-12T13:44:05;25.30;99.90
16666;DHT22;8446;50.998;6.250;2023-09-12T13:46:32;25.60;99.90
16666;DHT22;8446;50.998;6.250;2023-09-12T13:48:59;26.10;99.90
16666;DHT22;8446;50.998;6.250;2023-09-12T13:51:28;25.30;99.90
16666;DHT22;8446;50.998;6.250;2023-09-12T13:53:56;26.10;99.90
16666;DHT22;8446;50.998;6.250;2023-09-12T13:56:23;26.30;99.90
16666;DHT22;8446;50.998;6.250;2023-09-12T13:58:50;26.50;99.90
16666;DHT22;8446;50.998;6.250;2023-09-12T14:01:18;25.90;99.90
16666;DHT22;8446;50.998;6.250;2023-09-12T14:03:45;25.80;99.90
16666;DHT22;8446;50.998;6.250;2023-09-12T14:06:12;25.90;99.90
16666;DHT22;8446;50.998;6.250;2023-09-12T14:08:39;26.00;99.90
16666;DHT22;8446;50.998;6.250;2023-09-12T14:11:07;25.70;99.90
16666;DHT22;8446;50.998;6.250;2023-09-12T14:13:33;25.60;99.90
16666;DHT22;8446;50.998;6.250;2023-09-12T14:16:00;25.40;99.90
16666;DHT22;8446;50.998;6.250;2023-09-12T14:18:28;25.10;99.90
16666;DHT22;8446;50.998;6.250;2023-09-12T14:20:54;25.30;99.90
16666;DHT22;8446;50.998;6.250;2023-09-12T14:23:21;25.10;99.90
16666;DHT22;8446;50.998;6.250;2023-09-12T14:25:48;24.70;99.90
16666;DHT22;8446;50.998;6.250;2023-09-12T14:28:16;24.50;99.90
16666;DHT22;8446;50.998;6.250;2023-09-12T14:30:43;24.60;99.90
16666;DHT22;8446;50.998;6.250;2023-09-12T14:33:11;24.40;99.90
16666;DHT22;8446;50.998;6.250;2023-09-12T14:35:39;24.60;99.90
16666;DHT22;8446;50.998;6.250;2023-09-12T14:38:06;24.90;99.90
16666;DHT22;8446;50.998;6.250;2023-09-12T14:40:33;24.80;99.90
16666;DHT22;8446;50.998;6.250;2023-09-12T14:43:00;24.60;99.90
16666;DHT22;8446;50.998;6.250;2023-09-12T14:45:28;24.60;99.90
16666;DHT22;8446;50.998;6.250;2023-09-12T14:47:56;24.60;99.90
16666;DHT22;8446;50.998;6.250;2023-09-12T14:50:24;24.80;99.90
16666;DHT22;8446;50.998;6.250;2023-09-12T14:52:54;24.70;99.90
16666;DHT22;8446;50.998;6.250;2023-09-12T14:55:21;25.10;99.90
16666;DHT22;8446;50.998;6.250;2023-09-12T14:57:48;24.70;99.90
16666;DHT22;8446;50.998;6.250;2023-09-12T15:00:15;24.60;99.90
16666;DHT22;8446;50.998;6.250;2023-09-12T15:02:44;24.80;99.90
16666;DHT22;8446;50.998;6.250;2023-09-12T15:05:11;24.60;99.90
16666;DHT22;8446;50.998;6.250;2023-09-12T15:07:38;24.60;99.90
16666;DHT22;8446;50.998;6.250;2023-09-12T15:10:05;24.50;99.90
16666;DHT22;8446;50.998;6.250;2023-09-12T15:12:32;24.80;99.90
16666;DHT22;8446;50.998;6.250;2023-09-12T15:14:59;24.70;99.90
16666;DHT22;8446;50.998;6.250;2023-09-12T15:17:26;24.70;99.90
16666;DHT22;8446;50.998;6.250;2023-09-12T15:19:54;25.10;99.90
16666;DHT22;8446;50.998;6.250;2023-09-12T15:22:21;25.30;99.90
16666;DHT22;8446;50.998;6.250;2023-09-12T15:24:47;25.10;99.90
16666;DHT22;8446;50.998;6.250;2023-09-12T15:27:14;25.70;99.90
16666;DHT22;8446;50.998;6.250;2023-09-12T15:29:41;25.60;99.90
16666;DHT22;8446;50.998;6.250;2023-09-12T15:32:08;25.90;99.90
16666;DHT22;8446;50.998;6.250;2023-09-12T15:34:35;25.90;99.90
16666;DHT22;8446;50.998;6.250;2023-09-12T15:37:11;26.00;99.90
16666;DHT22;8446;50.998;6.250;2023-09-12T15:39:38;26.40;99.90
16666;DHT22;8446;50.998;6.250;2023-09-12T15:42:05;26.50;99.90
16666;DHT22;8446;50.998;6.250;2023-09-12T15:44:32;25.80;99.90
16666;DHT22;8446;50.998;6.250;2023-09-12T15:46:59;25.30;99.90
16666;DHT22;8446;50.998;6.250;2023-09-12T15:49:27;24.70;99.90
16666;DHT22;8446;50.998;6.250;2023-09-12T15:51:54;24.50;99.90